Time;durP1;ratioP1;P1;durP2;ratioP2;P2;SDS_P1;SDS_P2;PMS_P1;PMS_P2;Temp;Humidity;BMP_temperature;BMP_pressure;BME280_temperature;BME280_humidity;BME280_pressure;Samples;Min_cycle;Max_cycle;Signal;HPM_P1;HPM_P2
2022/10/04 00:00:40;;;;;;;3.90;1.65;;;;;;;-142.37;100.00;59669.53;5093700;28;20071;-68
2022/10/04 00:03:22;;;;;;;8.25;2.00;;;;;;;-142.37;100.00;59669.53;5111944;28;20019;-67
2022/10/04 00:05:54;;;;;;;3.63;1.70;;;;;;;-142.37;100.00;59669.53;5093937;28;20020;-67
2022/10/04 00:08:43;;;;;;;3.53;1.58;;;;;;;-142.37;100.00;59669.53;5112060;28;20027;-67
2022/10/04 00:11:15;;;;;;;2.83;1.50;;;;;;;-142.37;100.00;59669.53;5093654;28;20032;-68
2022/10/04 00:13:48;;;;;;;2.40;1.30;;;;;;;-142.37;100.00;59669.53;5113049;28;20055;-68
2022/10/04 00:16:31;;;;;;;6.50;1.30;;;;;;;-142.37;100.00;59669.53;5116343;28;20094;-68
2022/10/04 00:19:23;;;;;;;4.57;1.63;;;;;;;-142.37;100.00;59669.53;5116098;28;20023;-69
2022/10/04 00:21:52;;;;;;;5.55;1.63;;;;;;;-142.37;100.00;59669.53;5053403;28;20036;-68
2022/10/04 00:24:26;;;;;;;2.72;1.13;;;;;;;-142.37;100.00;59669.53;5097684;28;20032;-67
2022/10/04 00:26:52;;;;;;;6.65;1.25;;;;;;;-142.37;100.00;59669.53;5116301;28;20031;-68
2022/10/04 00:29:40;;;;;;;6.07;1.60;;;;;;;-142.37;100.00;59669.53;5097590;28;20035;-67
2022/10/04 00:32:09;;;;;;;3.70;1.65;;;;;;;-142.37;100.00;59669.53;5115874;28;20468;-68
2022/10/04 00:34:34;;;;;;;2.95;1.23;;;;;;;-142.37;100.00;59669.53;5097527;28;20051;-68
2022/10/04 00:37:12;;;;;;;1.15;0.98;;;;;;;-142.37;100.00;59669.53;5097475;28;20476;-67
2022/10/04 00:39:41;;;;;;;2.63;1.27;;;;;;;-142.37;100.00;59669.53;5115862;28;20372;-66
2022/10/04 00:42:50;;;;;;;2.88;1.25;;;;;;;-142.37;100.00;59669.53;5097498;28;20503;-67
2022/10/04 00:45:33;;;;;;;7.28;2.17;;;;;;;-142.37;100.00;59669.53;5096970;28;20589;-67
2022/10/04 00:48:17;;;;;;;2.88;1.20;;;;;;;-142.37;100.00;59669.53;5097251;28;20035;-67
2022/10/04 00:50:53;;;;;;;5.38;1.27;;;;;;;-142.37;100.00;59669.53;5115374;28;20020;-67
2022/10/04 00:53:43;;;;;;;3.85;1.40;;;;;;;-142.37;100.00;59669.53;5115280;28;20042;-68
2022/10/04 00:56:27;;;;;;;3.38;1.02;;;;;;;-142.37;100.00;59669.53;5097176;28;20036;-67
2022/10/04 00:58:53;;;;;;;3.90;1.48;;;;;;;-142.37;100.00;59669.53;5097052;28;20122;-66
2022/10/04 01:01:22;;;;;;;1.98;0.95;;;;;;;-142.37;100.00;59669.53;5115045;28;20118;-67
2022/10/04 01:03:50;;;;;;;4.40;1.20;;;;;;;-142.37;100.00;59669.53;5096771;28;20024;-67
2022/10/04 01:06:19;;;;;;;4.57;1.38;;;;;;;-142.37;100.00;59669.53;5115421;28;20160;-65
2022/10/04 01:08:54;;;;;;;6.63;1.38;;;;;;;-142.37;100.00;59669.53;5115179;28;20024;-66
2022/10/04 01:11:25;;;;;;;4.32;1.20;;;;;;;-142.37;100.00;59669.53;5096619;28;20389;-66
2022/10/04 01:13:57;;;;;;;6.10;1.80;;;;;;;-142.37;100.00;59669.53;5096759;28;20172;-66
2022/10/04 01:16:33;;;;;;;2.92;1.08;;;;;;;-142.37;100.00;59669.53;5114800;28;20058;-67
2022/10/04 01:19:21;;;;;;;4.70;1.27;;;;;;;-142.37;100.00;59669.53;5114648;28;20437;-67
2022/10/04 01:22:08;;;;;;;3.28;1.15;;;;;;;-142.37;100.00;59669.53;5115163;28;20066;-67
2022/10/04 01:24:39;;;;;;;2.90;1.05;;;;;;;-142.37;100.00;59669.53;5114045;28;20487;-68
2022/10/04 01:27:32;;;;;;;3.25;1.08;;;;;;;-142.37;100.00;59669.53;5115027;28;20185;-67
2022/10/04 01:29:59;;;;;;;6.35;1.50;;;;;;;-142.37;100.00;59669.53;5096547;28;20062;-67
2022/10/04 01:32:25;;;;;;;5.28;1.33;;;;;;;-142.37;100.00;59669.53;5114976;28;20560;-66
2022/10/04 01:34:51;;;;;;;2.78;1.08;;;;;;;-142.37;100.00;59669.53;5115371;28;20472;-67
2022/10/04 01:37:17;;;;;;;3.92;1.02;;;;;;;-142.37;100.00;59669.53;5114619;28;20620;-68
2022/10/04 01:39:43;;;;;;;3.47;0.85;;;;;;;-142.37;100.00;59669.53;5096410;28;20028;-66
2022/10/04 01:42:26;;;;;;;6.28;1.02;;;;;;;-142.37;100.00;59669.53;5114724;28;20384;-68
2022/10/04 01:45:09;;;;;;;3.20;1.25;;;;;;;-142.37;100.00;59669.53;5096320;28;20032;-66
2022/10/04 01:47:43;;;;;;;3.72;0.90;;;;;;;-142.37;100.00;59669.53;5096096;28;20032;-66
2022/10/04 01:50:19;;;;;;;2.70;1.05;;;;;;;-142.37;100.00;59669.53;5096119;28;20024;-67
2022/10/04 01:52:50;;;;;;;2.88;1.33;;;;;;;-142.37;100.00;59669.53;5114546;28;20032;-67
2022/10/04 01:55:44;;;;;;;3.05;0.90;;;;;;;-142.37;100.00;59669.53;5081061;28;20473;-66
2022/10/04 01:58:16;;;;;;;2.38;1.20;;;;;;;-142.37;100.00;59669.53;5070254;28;20176;-66
2022/10/04 02:00:50;;;;;;;3.20;1.00;;;;;;;-142.37;100.00;59669.53;5073582;28;20043;-65
2022/10/04 02:03:26;;;;;;;2.40;0.90;;;;;;;-142.37;100.00;59669.53;5073621;28;20078;-67
2022/10/04 02:05:57;;;;;;;2.90;1.35;;;;;;;-142.37;100.00;59669.53;5071849;28;20272;-67
2022/10/04 02:08:28;;;;;;;2.92;0.85;;;;;;;-142.37;100.00;59669.53;5073316;28;20074;-68
2022/10/04 02:10:55;;;;;;;2.63;1.17;;;;;;;-142.37;100.00;59669.53;5072125;28;20032;-67
2022/10/04 02:13:28;;;;;;;3.17;0.90;;;;;;;-142.37;100.00;59669.53;5073508;28;20048;-67
2022/10/04 02:15:55;;;;;;;3.80;0.93;;;;;;;-142.37;100.00;59669.53;5073199;28;20036;-66
2022/10/04 02:18:22;;;;;;;1.73;1.05;;;;;;;-142.37;100.00;59669.53;5071866;28;20032;-66
2022/10/04 02:20:50;;;;;;;4.50;0.90;;;;;;;-142.37;100.00;59669.53;5073202;28;20036;-65
2022/10/04 02:23:18;;;;;;;3.75;1.20;;;;;;;-142.37;100.00;59669.53;5071714;28;20508;-66
2022/10/04 02:25:44;;;;;;;2.70;0.90;;;;;;;-142.37;100.00;59669.53;5073009;28;20381;-66
2022/10/04 02:28:12;;;;;;;3.78;1.02;;;;;;;-142.37;100.00;59669.53;5071784;28;20029;-66
2022/10/04 02:30:43;;;;;;;4.97;1.58;;;;;;;-142.37;100.00;59669.53;5071554;28;20071;-66
2022/10/04 02:33:09;;;;;;;8.98;1.77;;;;;;;-142.37;100.00;59669.53;5073174;28;20129;-66
2022/10/04 02:35:42;;;;;;;4.88;1.67;;;;;;;-142.37;100.00;59669.53;5072478;28;20039;-68
2022/10/04 02:38:24;;;;;;;7.28;0.70;;;;;;;-142.37;100.00;59669.53;5071287;28;20454;-67
2022/10/04 02:40:58;;;;;;;5.82;1.33;;;;;;;-142.37;100.00;59669.53;5071552;28;20032;-67
2022/10/04 02:43:31;;;;;;;2.88;0.70;;;;;;;-142.37;100.00;59669.53;5072650;28;20031;-67
2022/10/04 02:46:06;;;;;;;2.63;0.75;;;;;;;-142.37;100.00;59669.53;5071110;28;20066;-67
2022/10/04 02:48:52;;;;;;;5.10;1.00;;;;;;;-142.37;100.00;59669.53;5072732;28;20554;-68
2022/10/04 02:51:32;;;;;;;9.18;1.17;;;;;;;-142.37;100.00;59669.53;5072353;28;20024;-67
2022/10/04 02:54:28;;;;;;;6.07;0.88;;;;;;;-142.37;100.00;59669.53;5072648;28;20473;-68
2022/10/04 02:56:58;;;;;;;5.53;1.42;;;;;;;-142.37;100.00;59669.53;5095004;28;20060;-67
2022/10/04 02:59:24;;;;;;;10.50;0.80;;;;;;;-142.37;100.00;59669.53;5113072;28;20377;-68
2022/10/04 03:01:53;;;;;;;5.53;0.90;;;;;;;-142.37;100.00;59669.53;5094969;28;20472;-67
2022/10/04 03:04:36;;;;;;;1.85;0.90;;;;;;;-142.37;100.00;59669.53;5113160;28;20024;-68
2022/10/04 03:07:06;;;;;;;8.32;1.50;;;;;;;-142.37;100.00;59669.53;5112695;28;20048;-68
2022/10/04 03:09:35;;;;;;;7.28;1.50;;;;;;;-142.37;100.00;59669.53;5113068;28;20035;-66
2022/10/04 03:12:03;;;;;;;3.90;0.85;;;;;;;-142.37;100.00;59669.53;5113057;28;20391;-67
2022/10/04 03:14:31;;;;;;;2.80;0.77;;;;;;;-142.37;100.00;59669.53;5112925;28;20026;-68
2022/10/04 03:17:02;;;;;;;3.67;0.57;;;;;;;-142.37;100.00;59669.53;5112609;28;20020;-69
2022/10/04 03:19:31;;;;;;;5.57;1.00;;;;;;;-142.37;100.00;59669.53;5094501;28;20125;-67
2022/10/04 03:22:08;;;;;;;3.47;0.80;;;;;;;-142.37;100.00;59669.53;5112748;28;20476;-66
2022/10/04 03:24:42;;;;;;;2.28;0.70;;;;;;;-142.37;100.00;59669.53;5112289;28;20376;-67
2022/10/04 03:27:13;;;;;;;2.83;0.80;;;;;;;-142.37;100.00;59669.53;5112714;28;20039;-67
2022/10/04 03:29:42;;;;;;;4.25;0.73;;;;;;;-142.37;100.00;59669.53;5112632;28;20035;-68
2022/10/04 03:32:13;;;;;;;5.88;1.00;;;;;;;-142.37;100.00;59669.53;5094459;28;20028;-66
2022/10/04 03:34:42;;;;;;;4.68;0.73;;;;;;;-142.37;100.00;59669.53;5094381;28;20023;-67
2022/10/04 03:37:15;;;;;;;5.40;1.15;;;;;;;-142.37;100.00;59669.53;5112428;28;20023;-66
2022/10/04 03:39:44;;;;;;;2.85;0.73;;;;;;;-142.37;100.00;59669.53;5112379;28;20023;-66
2022/10/04 03:42:15;;;;;;;4.00;0.73;;;;;;;-142.37;100.00;59669.53;5094027;28;20039;-68
2022/10/04 03:44:42;;;;;;;6.47;1.10;;;;;;;-142.37;100.00;59669.53;5112826;28;20391;-68
2022/10/04 03:47:12;;;;;;;6.97;1.33;;;;;;;-142.37;100.00;59669.53;5112256;28;20031;-67
2022/10/04 03:49:39;;;;;;;1.52;0.52;;;;;;;-142.37;100.00;59669.53;5093992;28;20032;-67
2022/10/04 03:52:11;;;;;;;4.72;0.77;;;;;;;-142.37;100.00;59669.53;5112288;28;20026;-66
2022/10/04 03:54:37;;;;;;;5.45;0.75;;;;;;;-142.37;100.00;59669.53;5093916;28;20044;-67
2022/10/04 03:57:05;;;;;;;5.05;1.05;;;;;;;-142.37;100.00;59669.53;5112149;28;20024;-67
2022/10/04 03:59:32;;;;;;;1.50;0.47;;;;;;;-142.37;100.00;59669.53;5094032;28;20046;-67
2022/10/04 04:02:39;;;;;;;8.07;1.25;;;;;;;-142.37;100.00;59669.53;5093847;28;20480;-67
2022/10/04 04:05:08;;;;;;;6.00;0.60;;;;;;;-142.37;100.00;59669.53;5044917;28;20040;-67
2022/10/04 04:07:42;;;;;;;5.30;0.90;;;;;;;-142.37;100.00;59669.53;5112035;28;20376;-67
2022/10/04 04:10:27;;;;;;;2.85;0.93;;;;;;;-142.37;100.00;59669.53;5112095;28;20053;-65
2022/10/04 04:13:18;;;;;;;12.73;1.60;;;;;;;-142.37;100.00;59669.53;5112215;28;20062;-66
2022/10/04 04:15:46;;;;;;;1.42;0.38;;;;;;;-142.37;100.00;59669.53;5092951;28;20043;-66
2022/10/04 04:18:23;;;;;;;8.18;1.25;;;;;;;-142.37;100.00;59669.53;5112009;28;20028;-68
2022/10/04 04:20:52;;;;;;;4.28;1.20;;;;;;;-142.37;100.00;59669.53;5093298;28;20480;-67
2022/10/04 04:23:31;;;;;;;14.63;1.00;;;;;;;-142.37;100.00;59669.53;5111532;28;20023;-66
2022/10/04 04:26:16;;;;;;;7.30;0.70;;;;;;;-142.37;100.00;59669.53;5111851;28;20107;-67
2022/10/04 04:28:56;;;;;;;11.45;1.77;;;;;;;-142.37;100.00;59669.53;5093259;28;20103;-67
2022/10/04 04:31:28;;;;;;;2.22;0.50;;;;;;;-142.37;100.00;59669.53;5111695;28;20666;-68
2022/10/04 04:34:14;;;;;;;7.45;1.40;;;;;;;-142.37;100.00;59669.53;5093248;28;20375;-67
2022/10/04 04:36:40;;;;;;;5.15;0.82;;;;;;;-142.37;100.00;59669.53;5093178;28;20024;-67
2022/10/04 04:41:56;;;;;;;6.53;0.98;;;;;;;-142.37;100.00;59669.53;5111372;28;20403;-67
2022/10/04 04:44:22;;;;;;;5.05;0.80;;;;;;;-142.37;100.00;59669.53;5111706;28;20023;-67
2022/10/04 04:46:48;;;;;;;5.32;0.60;;;;;;;-142.37;100.00;59669.53;5092966;28;20447;-67
2022/10/04 04:49:17;;;;;;;5.40;0.98;;;;;;;-142.37;100.00;59669.53;5111496;28;20024;-67
2022/10/04 04:51:50;;;;;;;4.35;1.05;;;;;;;-142.37;100.00;59669.53;5093204;28;20532;-67
2022/10/04 04:54:20;;;;;;;6.45;0.70;;;;;;;-142.37;100.00;59669.53;5111433;28;20091;-67
2022/10/04 04:56:49;;;;;;;2.90;0.68;;;;;;;-142.37;100.00;59669.53;5092794;28;20464;-67
2022/10/04 04:59:15;;;;;;;6.13;0.98;;;;;;;-142.37;100.00;59669.53;5110882;28;20034;-68
2022/10/04 05:01:46;;;;;;;5.07;0.82;;;;;;;-142.37;100.00;59669.53;5096458;28;20085;-66
2022/10/04 05:04:12;;;;;;;6.32;1.08;;;;;;;-142.37;100.00;59669.53;5114923;28;20024;-66
2022/10/04 05:06:39;;;;;;;3.97;1.30;;;;;;;-142.37;100.00;59669.53;5096467;28;20446;-68
2022/10/04 05:09:05;;;;;;;10.50;1.00;;;;;;;-142.37;100.00;59669.53;5096076;28;20031;-68
2022/10/04 05:11:36;;;;;;;5.03;1.10;;;;;;;-142.37;100.00;59669.53;5114590;28;20028;-68
2022/10/04 05:14:11;;;;;;;9.40;1.42;;;;;;;-142.37;100.00;59669.53;5096181;28;20024;-67
2022/10/04 05:16:42;;;;;;;4.13;0.88;;;;;;;-142.37;100.00;59669.53;5114739;28;20445;-67
2022/10/04 05:19:15;;;;;;;8.73;1.23;;;;;;;-142.37;100.00;59669.53;5096709;28;20030;-68
2022/10/04 05:21:45;;;;;;;4.22;1.08;;;;;;;-142.37;100.00;59669.53;5114069;28;20388;-68
2022/10/04 05:24:21;;;;;;;5.55;0.85;;;;;;;-142.37;100.00;59669.53;5095756;28;20060;-68
2022/10/04 05:27:01;;;;;;;5.68;0.98;;;;;;;-142.37;100.00;59669.53;5114220;28;20034;-68
2022/10/04 05:29:32;;;;;;;6.18;1.00;;;;;;;-142.37;100.00;59669.53;5114632;28;20499;-67
2022/10/04 05:32:15;;;;;;;11.90;1.45;;;;;;;-142.37;100.00;59669.53;5114450;28;20122;-67
2022/10/04 05:34:47;;;;;;;6.97;1.23;;;;;;;-142.37;100.00;59669.53;5095433;28;20532;-67
2022/10/04 05:37:51;;;;;;;4.85;0.82;;;;;;;-142.37;100.00;59669.53;5113973;28;20381;-68
2022/10/04 05:40:32;;;;;;;6.82;0.60;;;;;;;-142.37;100.00;59669.53;5114177;28;20032;-67
2022/10/04 05:42:58;;;;;;;8.07;1.15;;;;;;;-142.37;100.00;59669.53;5094771;28;20115;-69
2022/10/04 05:45:29;;;;;;;10.25;1.35;;;;;;;-142.37;100.00;59669.53;5095167;28;20118;-68
2022/10/04 05:47:59;;;;;;;6.60;1.05;;;;;;;-142.37;100.00;59669.53;5095455;28;20028;-68
2022/10/04 05:50:51;;;;;;;6.88;1.10;;;;;;;-142.37;100.00;59669.53;5095010;28;20114;-69
2022/10/04 05:53:34;;;;;;;12.65;3.42;;;;;;;-142.37;100.00;59669.53;5089733;28;20069;-69
2022/10/04 05:56:17;;;;;;;6.10;1.10;;;;;;;-142.37;100.00;59669.53;5113816;28;20056;-67
2022/10/04 05:58:56;;;;;;;8.68;1.50;;;;;;;-142.37;100.00;59669.53;5094916;28;20044;-66
2022/10/04 06:01:49;;;;;;;7.05;1.15;;;;;;;-142.37;100.00;59669.53;5113050;28;20062;-67
2022/10/04 06:04:44;;;;;;;4.10;0.68;;;;;;;-142.37;100.00;59669.53;5113003;28;20057;-68
2022/10/04 06:07:33;;;;;;;6.72;0.90;;;;;;;-142.37;100.00;59669.53;5071716;28;20180;-67
2022/10/04 06:10:18;;;;;;;23.48;12.23;;;;;;;-142.37;100.00;59669.53;5112883;28;20465;-68
2022/10/04 06:12:54;;;;;;;4.63;1.17;;;;;;;-142.37;100.00;59669.53;5094869;28;20147;-70
2022/10/04 06:15:57;;;;;;;7.70;1.42;;;;;;;-142.37;100.00;59669.53;5112648;28;20080;-69
2022/10/04 06:18:35;;;;;;;15.75;2.13;;;;;;;-142.37;100.00;59669.53;5093822;28;20093;-68
2022/10/04 06:21:15;;;;;;;9.43;2.10;;;;;;;-142.37;100.00;59669.53;5111887;28;20080;-69
2022/10/04 06:24:10;;;;;;;9.70;1.92;;;;;;;-142.37;100.00;59669.53;5112390;28;20024;-69
2022/10/04 06:26:48;;;;;;;4.05;1.48;;;;;;;-142.37;100.00;59669.53;5089491;28;20071;-68
2022/10/04 06:29:19;;;;;;;6.28;1.67;;;;;;;-142.37;100.00;59669.53;5093957;28;20520;-67
2022/10/04 06:32:09;;;;;;;4.25;1.23;;;;;;;-142.37;100.00;59669.53;5094183;28;20042;-69
2022/10/04 06:34:53;;;;;;;5.95;2.08;;;;;;;-142.37;100.00;59669.53;5094480;28;20107;-68
2022/10/04 06:37:44;;;;;;;7.07;1.10;;;;;;;-142.37;100.00;59669.53;5093531;28;20031;-69
2022/10/04 06:40:45;;;;;;;9.40;1.58;;;;;;;-142.37;100.00;59669.53;5112487;28;20032;-68
2022/10/04 06:43:35;;;;;;;6.80;1.40;;;;;;;-142.37;100.00;59669.53;5088840;28;20035;-68
2022/10/04 06:46:16;;;;;;;5.78;1.50;;;;;;;-142.37;100.00;59669.53;5113131;28;20065;-69
2022/10/04 06:48:59;;;;;;;3.83;0.95;;;;;;;-142.37;100.00;59669.53;5094209;28;20035;-69
2022/10/04 06:51:52;;;;;;;8.25;1.10;;;;;;;-142.37;100.00;59669.53;5112259;28;20019;-69
2022/10/04 06:54:53;;;;;;;6.22;1.00;;;;;;;-142.37;100.00;59669.53;5094426;28;20112;-70
2022/10/04 06:57:22;;;;;;;11.18;1.08;;;;;;;-142.37;100.00;59669.53;5040762;28;20325;-70
2022/10/04 07:00:12;;;;;;;5.00;1.20;;;;;;;-142.37;100.00;59669.53;5094146;28;20054;-69
2022/10/04 07:03:08;;;;;;;5.93;1.25;;;;;;;-142.37;100.00;59669.53;5094430;28;20080;-69
2022/10/04 07:05:52;;;;;;;6.10;1.10;;;;;;;-142.37;100.00;59669.53;5094118;28;20134;-69
2022/10/04 07:08:30;;;;;;;12.27;1.08;;;;;;;-142.37;100.00;59669.53;5093703;28;20046;-70
2022/10/04 07:11:15;;;;;;;7.65;1.20;;;;;;;-142.37;100.00;59669.53;5094073;28;20115;-70
2022/10/04 07:14:13;;;;;;;3.95;1.40;;;;;;;-142.37;100.00;59669.53;5093939;28;20024;-70
2022/10/04 07:17:01;;;;;;;6.50;0.95;;;;;;;-142.37;100.00;59669.53;5055402;28;20429;-69
2022/10/04 07:19:54;;;;;;;10.50;2.58;;;;;;;-142.37;100.00;59669.53;5094024;28;20016;-68
2022/10/04 07:22:39;;;;;;;11.80;3.25;;;;;;;-142.37;100.00;59669.53;5111407;28;20035;-69
2022/10/04 07:25:11;;;;;;;6.13;0.90;;;;;;;-142.37;100.00;59669.53;5093645;28;20023;-67
2022/10/04 07:30:57;;;;;;;9.25;1.48;;;;;;;-142.37;100.00;59669.53;5112326;28;20115;-68
2022/10/04 07:33:28;;;;;;;4.97;0.65;;;;;;;-142.37;100.00;59669.53;5094117;28;20028;-70
2022/10/04 07:36:07;;;;;;;5.32;1.02;;;;;;;-142.37;100.00;59669.53;5094251;28;20349;-70
2022/10/04 07:38:41;;;;;;;4.32;2.13;;;;;;;-142.37;100.00;59669.53;5093745;28;20039;-69
2022/10/04 07:41:32;;;;;;;11.68;1.17;;;;;;;-142.37;100.00;59669.53;5111906;28;20107;-69
2022/10/04 07:44:16;;;;;;;7.47;0.90;;;;;;;-142.37;100.00;59669.53;5111471;28;20044;-69
2022/10/04 07:46:41;;;;;;;4.95;1.02;;;;;;;-142.37;100.00;59669.53;5112646;28;20040;-69
2022/10/04 07:49:15;;;;;;;17.98;1.48;;;;;;;-142.37;100.00;59669.53;5093540;28;20026;-69
2022/10/04 07:52:09;;;;;;;4.82;1.08;;;;;;;-142.37;100.00;59669.53;5093638;28;20123;-68
2022/10/04 07:54:41;;;;;;;4.18;1.38;;;;;;;-142.37;100.00;59669.53;5093541;28;20043;-71
2022/10/04 07:57:26;;;;;;;6.90;0.98;;;;;;;-142.37;100.00;59669.53;5093377;28;20053;-71
2022/10/04 08:00:18;;;;;;;13.00;1.63;;;;;;;-142.37;100.00;59669.53;5111552;28;20161;-71
2022/10/04 08:03:11;;;;;;;14.82;1.30;;;;;;;-142.37;100.00;59669.53;5112298;28;20055;-69
2022/10/04 08:05:46;;;;;;;8.13;1.67;;;;;;;-142.37;100.00;59669.53;5094256;28;20031;-73
2022/10/04 08:08:20;;;;;;;;;;;;;;;-142.37;100.00;59669.53;5112638;28;20040;-72
2022/10/04 08:11:26;;;;;;;3.40;1.05;;;;;;;-142.37;100.00;59669.53;5093515;28;19911;-71
2022/10/04 08:14:29;;;;;;;4.20;1.65;;;;;;;-142.37;100.00;59669.53;5112538;28;20111;-70
2022/10/04 08:17:16;;;;;;;6.85;1.17;;;;;;;-142.37;100.00;59669.53;5094055;28;20043;-72
2022/10/04 08:20:09;;;;;;;4.50;1.08;;;;;;;-142.37;100.00;59669.53;5093391;28;20039;-74
2022/10/04 08:22:59;;;;;;;6.13;1.38;;;;;;;-142.37;100.00;59669.53;5094065;28;20396;-72
2022/10/04 08:25:43;;;;;;;7.78;1.38;;;;;;;-142.37;100.00;59669.53;5111787;28;20023;-72
2022/10/04 08:31:14;;;;;;;9.45;1.80;;;;;;;-142.37;100.00;59669.53;5111184;28;20453;-73
2022/10/04 08:34:07;;;;;;;9.57;2.03;;;;;;;-142.37;100.00;59669.53;5093338;28;20496;-72
2022/10/04 08:36:58;;;;;;;4.25;1.10;;;;;;;-142.37;100.00;59669.53;5097632;28;20043;-70
2022/10/04 08:39:52;;;;;;;6.35;2.47;;;;;;;-142.37;100.00;59669.53;5115893;28;20043;-71
2022/10/04 08:42:41;;;;;;;12.30;4.75;;;;;;;-142.37;100.00;59669.53;5097036;28;20147;-71
2022/10/04 08:45:13;;;;;;;4.75;1.20;;;;;;;-142.37;100.00;59669.53;5115672;28;20038;-71
2022/10/04 08:47:57;;;;;;;5.10;1.42;;;;;;;-142.37;100.00;59669.53;5097703;28;20038;-71
2022/10/04 08:50:54;;;;;;;7.85;1.73;;;;;;;-142.37;100.00;59669.53;5116187;28;20081;-70
2022/10/04 08:53:32;;;;;;;4.68;1.60;;;;;;;-142.37;100.00;59669.53;5097376;28;20455;-70
2022/10/04 08:56:23;;;;;;;5.57;1.13;;;;;;;-142.37;100.00;59669.53;5115242;28;20123;-70
2022/10/04 08:59:01;;;;;;;5.82;1.25;;;;;;;-142.37;100.00;59669.53;5097078;28;20027;-69
2022/10/04 09:01:38;;;;;;;9.02;1.90;;;;;;;-142.37;100.00;59669.53;5097128;28;20059;-70
2022/10/04 09:04:31;;;;;;;6.75;1.70;;;;;;;-142.37;100.00;59669.53;5096301;28;20031;-69
2022/10/04 09:07:22;;;;;;;7.40;1.40;;;;;;;-142.37;100.00;59669.53;5114262;28;20028;-69
2022/10/04 09:10:03;;;;;;;7.70;2.33;;;;;;;-142.37;100.00;59669.53;5096491;28;20039;-68
2022/10/04 09:12:31;;;;;;;6.75;1.58;;;;;;;-142.37;100.00;59669.53;5096468;28;20028;-69
2022/10/04 09:15:25;;;;;;;4.20;1.27;;;;;;;-142.37;100.00;59669.53;5096081;28;20484;-67
2022/10/04 09:18:00;;;;;;;6.30;1.70;;;;;;;-142.37;100.00;59669.53;5096951;28;20059;-67
2022/10/04 09:20:53;;;;;;;6.15;1.70;;;;;;;-142.37;100.00;59669.53;5114295;28;20062;-68
2022/10/04 09:23:32;;;;;;;9.13;1.50;;;;;;;-142.37;100.00;59669.53;5095532;28;20038;-67
2022/10/04 09:26:22;;;;;;;8.55;2.05;;;;;;;-142.37;100.00;59669.53;5096109;28;20041;-67
2022/10/04 09:29:07;;;;;;;4.32;1.10;;;;;;;-142.37;100.00;59669.53;5113958;28;20205;-68
2022/10/04 09:32:06;;;;;;;5.68;1.83;;;;;;;-142.37;100.00;59669.53;5114578;28;20059;-67
2022/10/04 09:34:45;;;;;;;6.25;2.00;;;;;;;-142.37;100.00;59669.53;5114053;28;20035;-66
2022/10/04 09:37:45;;;;;;;6.97;1.98;;;;;;;-142.37;100.00;59669.53;5095228;28;20034;-66
2022/10/04 09:40:51;;;;;;;4.97;1.00;;;;;;;-142.37;100.00;59669.53;5114201;28;20036;-67
2022/10/04 09:44:00;;;;;;;5.82;1.60;;;;;;;-142.37;100.00;59669.53;5113985;28;20591;-66
2022/10/04 09:46:53;;;;;;;5.53;1.88;;;;;;;-142.37;100.00;59669.53;5095162;28;20058;-66
2022/10/04 09:50:09;;;;;;;4.50;1.42;;;;;;;-142.37;100.00;59669.53;5095146;28;20027;-66
2022/10/04 09:53:09;;;;;;;3.55;1.92;;;;;;;-142.37;100.00;59669.53;5095456;28;20131;-65
2022/10/04 09:55:57;;;;;;;3.55;1.60;;;;;;;-142.37;100.00;59669.53;5113541;28;20051;-67
2022/10/04 09:58:57;;;;;;;5.32;1.40;;;;;;;-142.37;100.00;59669.53;5113943;28;20155;-65
2022/10/04 10:02:00;;;;;;;5.20;2.30;;;;;;;-142.37;100.00;59669.53;5094707;28;20046;-64
2022/10/04 10:04:29;;;;;;;7.00;1.45;;;;;;;-142.37;100.00;59669.53;5095544;28;20027;-65
2022/10/04 10:07:08;;;;;;;4.78;2.00;;;;;;;-142.37;100.00;59669.53;5094800;28;20062;-66
2022/10/04 10:15:54;;;;;;;3.78;1.17;;;;;;;-142.37;100.00;59669.53;5113318;28;20050;-64
2022/10/04 10:18:41;;;;;;;8.03;1.57;;;;;;;-142.37;100.00;59669.53;5095154;28;20507;-66
2022/10/04 10:21:37;;;;;;;6.97;1.20;;;;;;;-142.37;100.00;59669.53;5112707;28;20031;-64
2022/10/04 10:24:26;;;;;;;6.68;1.20;;;;;;;-142.37;100.00;59669.53;5114258;28;20101;-65
2022/10/04 10:27:23;;;;;;;3.67;1.42;;;;;;;-142.37;100.00;59669.53;5113044;28;20037;-65
2022/10/04 10:30:23;;;;;;;7.07;1.85;;;;;;;-142.37;100.00;59669.53;5094672;28;20038;-65
2022/10/04 10:33:01;;;;;;;4.50;1.48;;;;;;;-142.37;100.00;59669.53;5112859;28;20063;-65
2022/10/04 10:35:51;;;;;;;8.50;5.43;;;;;;;-142.37;100.00;59669.53;5094327;28;20055;-66
2022/10/04 10:38:55;;;;;;;7.70;3.72;;;;;;;-142.37;100.00;59669.53;5112954;28;20087;-65
2022/10/04 10:41:46;;;;;;;3.95;1.00;;;;;;;-142.37;100.00;59669.53;5092995;28;20415;-64
2022/10/04 10:44:47;;;;;;;4.80;1.50;;;;;;;-142.37;100.00;59669.53;5113136;28;20023;-65
2022/10/04 10:47:58;;;;;;;5.68;2.75;;;;;;;-142.37;100.00;59669.53;5094117;28;20367;-64
2022/10/04 10:50:57;;;;;;;9.07;3.83;;;;;;;-142.37;100.00;59669.53;5083703;28;20031;-64
2022/10/04 10:54:00;;;;;;;4.78;1.50;;;;;;;-142.37;100.00;59669.53;5093945;28;20051;-65
2022/10/04 10:56:58;;;;;;;6.20;1.90;;;;;;;-142.37;100.00;59669.53;5094075;28;20044;-64
2022/10/04 10:59:42;;;;;;;4.50;2.42;;;;;;;-142.37;100.00;59669.53;5007734;28;20050;-64
2022/10/04 11:02:10;;;;;;;9.02;3.22;;;;;;;-142.37;100.00;59669.53;5094696;28;20032;-65
2022/10/04 11:04:42;;;;;;;7.78;1.20;;;;;;;-142.37;100.00;59669.53;5094548;28;20028;-64
2022/10/04 11:07:40;;;;;;;4.68;0.77;;;;;;;-142.37;100.00;59669.53;5093410;28;20024;-67
2022/10/04 11:10:25;;;;;;;4.80;1.08;;;;;;;-142.37;100.00;59669.53;5055815;28;20040;-65
2022/10/04 11:12:50;;;;;;;;;;;;;;;-142.37;100.00;59669.53;5094771;28;20039;-65
2022/10/04 11:15:41;;;;;;;3.30;1.08;;;;;;;-142.37;100.00;59669.53;5112431;28;19915;-65
2022/10/04 11:18:25;;;;;;;3.67;1.13;;;;;;;-142.37;100.00;59669.53;5111291;28;20027;-66
2022/10/04 11:21:09;;;;;;;10.07;1.70;;;;;;;-142.37;100.00;59669.53;5111967;28;20114;-64
2022/10/04 11:24:25;;;;;;;4.47;0.85;;;;;;;-142.37;100.00;59669.53;5112600;28;20364;-64
2022/10/04 11:26:54;;;;;;;;;;;;;;;-142.37;100.00;59669.53;5010025;28;20076;-66
2022/10/04 11:29:29;;;;;;;3.85;0.93;;;;;;;-142.37;100.00;59669.53;5074914;28;19911;-65
2022/10/04 11:32:01;;;;;;;4.70;1.08;;;;;;;-142.37;100.00;59669.53;5112253;28;20028;-66
2022/10/04 11:34:49;;;;;;;5.18;1.05;;;;;;;-142.37;100.00;59669.53;5112320;28;20582;-67
2022/10/04 11:37:33;;;;;;;3.92;0.80;;;;;;;-142.37;100.00;59669.53;5111995;28;20031;-66
2022/10/04 11:40:38;;;;;;;7.90;2.25;;;;;;;-142.37;100.00;59669.53;5111740;28;20038;-68
2022/10/04 11:43:12;;;;;;;6.07;1.52;;;;;;;-142.37;100.00;59669.53;5038706;28;20140;-66
2022/10/04 11:46:20;;;;;;;5.30;2.08;;;;;;;-142.37;100.00;59669.53;5112100;28;20406;-67
2022/10/04 11:49:13;;;;;;;5.45;1.02;;;;;;;-142.37;100.00;59669.53;5093701;28;20027;-66
2022/10/04 11:52:06;;;;;;;4.32;0.90;;;;;;;-142.37;100.00;59669.53;5093866;28;20027;-66
2022/10/04 11:55:19;;;;;;;2.42;0.68;;;;;;;-142.37;100.00;59669.53;5112016;28;20064;-66
2022/10/04 11:58:00;;;;;;;14.23;6.55;;;;;;;-142.37;100.00;59669.53;5094055;28;20192;-66
2022/10/04 12:01:03;;;;;;;6.90;1.58;;;;;;;-142.37;100.00;59669.53;5093480;28;20123;-66
2022/10/04 12:04:08;;;;;;;4.65;1.30;;;;;;;-142.37;100.00;59669.53;5055775;28;20047;-66
2022/10/04 12:06:43;;;;;;;4.82;1.65;;;;;;;-142.37;100.00;59669.53;5060053;28;20384;-66
2022/10/04 12:09:50;;;;;;;5.63;3.38;;;;;;;-142.37;100.00;59669.53;5095182;28;20024;-67
2022/10/04 12:12:46;;;;;;;8.15;3.45;;;;;;;-142.37;100.00;59669.53;5058702;28;20040;-67
2022/10/04 12:15:34;;;;;;;4.10;1.08;;;;;;;-142.37;100.00;59669.53;5097329;28;20035;-67
2022/10/04 12:18:19;;;;;;;5.25;1.45;;;;;;;-142.37;100.00;59669.53;5115560;28;20122;-68
2022/10/04 12:21:22;;;;;;;4.68;1.70;;;;;;;-142.37;100.00;59669.53;5096869;28;20039;-67
2022/10/04 12:24:16;;;;;;;3.17;0.80;;;;;;;-142.37;100.00;59669.53;5115259;28;20059;-67
2022/10/04 12:26:48;;;;;;;3.33;0.50;;;;;;;-142.37;100.00;59669.53;5096744;28;20118;-68